Time;durP1;ratioP1;P1;durP2;ratioP2;P2;SDS_P1;SDS_P2;PMS_P1;PMS_P2;Temp;Humidity;BMP_temperature;BMP_pressure;BME280_temperature;BME280_humidity;BME280_pressure;Samples;Min_cycle;Max_cycle;Signal;HPM_P1;HPM_P2
2024/02/22 00:00:57;;;;;;;7.22;5.22;;;;;;;8.34;74.14;100296.13;5052929;28;20086;-38
2024/02/22 00:03:22;;;;;;;7.97;5.30;;;;;;;8.36;73.18;100289.66;5052823;28;20537;-39
2024/02/22 00:05:48;;;;;;;8.35;5.53;;;;;;;8.45;73.17;100284.34;5052397;28;20075;-39
2024/02/22 00:08:13;;;;;;;8.50;5.78;;;;;;;8.50;72.84;100287.28;5052636;28;20074;-40
2024/02/22 00:10:38;;;;;;;7.80;5.70;;;;;;;8.49;72.78;100280.31;5051307;28;20033;-39
2024/02/22 00:13:04;;;;;;;8.27;5.57;;;;;;;8.50;72.53;100280.16;5052834;28;20021;-40
2024/02/22 00:15:30;;;;;;;7.38;5.38;;;;;;;8.43;73.42;100279.19;5051631;28;20065;-40
2024/02/22 00:17:56;;;;;;;7.43;4.93;;;;;;;8.57;72.11;100274.97;5052288;28;20053;-40
2024/02/22 00:20:21;;;;;;;7.72;5.03;;;;;;;8.69;71.34;100267.41;5052379;28;20056;-40
2024/02/22 00:22:47;;;;;;;7.53;4.95;;;;;;;8.75;71.39;100270.16;5052183;28;20188;-40
2024/02/22 00:25:13;;;;;;;6.90;4.90;;;;;;;8.46;72.22;100249.69;5052080;28;20045;-39
2024/02/22 00:27:39;;;;;;;6.78;4.80;;;;;;;8.50;72.86;100266.06;5052269;28;20031;-40
2024/02/22 00:30:09;;;;;;;6.80;4.57;;;;;;;8.32;73.01;100261.84;5051750;28;20060;-40
2024/02/22 00:32:34;;;;;;;6.80;4.88;;;;;;;8.30;73.02;100258.56;5051792;28;20075;-40
2024/02/22 00:35:00;;;;;;;7.47;4.78;;;;;;;8.45;72.70;100261.28;5051760;28;20024;-40
2024/02/22 00:37:25;;;;;;;5.88;4.45;;;;;;;8.26;73.26;100248.47;5052000;28;20105;-39
2024/02/22 00:39:51;;;;;;;7.47;4.60;;;;;;;8.12;73.88;100247.41;5052208;28;20393;-39
2024/02/22 00:42:16;;;;;;;5.75;4.20;;;;;;;8.18;74.01;100236.09;5051727;28;20471;-39
2024/02/22 00:44:42;;;;;;;5.50;4.13;;;;;;;8.05;74.29;100230.53;5041230;28;20083;-39
2024/02/22 00:47:07;;;;;;;5.85;4.07;;;;;;;8.17;74.07;100237.09;5032120;28;20100;-39
2024/02/22 00:49:32;;;;;;;6.60;4.20;;;;;;;8.21;73.29;100235.75;5031814;28;20413;-38
2024/02/22 00:51:58;;;;;;;6.25;4.13;;;;;;;8.37;72.91;100232.97;5031906;28;20243;-38
2024/02/22 00:54:23;;;;;;;6.28;4.47;;;;;;;8.33;72.63;100222.91;5031804;28;20018;-39
2024/02/22 00:56:49;;;;;;;6.63;4.45;;;;;;;8.18;73.32;100223.66;5032021;28;20087;-39
2024/02/22 00:59:14;;;;;;;5.22;3.78;;;;;;;8.13;73.56;100223.38;5031730;28;20056;-39
2024/02/22 01:01:41;;;;;;;5.45;3.90;;;;;;;8.30;72.70;100223.25;5031535;28;20025;-37
2024/02/22 01:04:07;;;;;;;5.32;3.80;;;;;;;8.31;72.42;100222.25;5031764;28;20104;-39
2024/02/22 01:06:33;;;;;;;4.95;3.63;;;;;;;8.47;71.22;100216.03;5031342;28;20053;-39
2024/02/22 01:09:00;;;;;;;4.88;3.65;;;;;;;8.29;72.75;100214.47;5031484;28;20036;-40
2024/02/22 01:11:25;;;;;;;5.25;3.85;;;;;;;8.36;72.27;100207.47;5031642;28;20032;-40
2024/02/22 01:13:51;;;;;;;5.68;4.13;;;;;;;8.10;73.65;100207.81;5031947;28;20025;-40
2024/02/22 01:16:20;;;;;;;6.47;4.20;;;;;;;8.11;73.37;100193.56;5032154;28;20025;-40
2024/02/22 01:18:45;;;;;;;6.25;3.97;;;;;;;8.18;73.76;100191.00;5032042;28;20026;-39
2024/02/22 01:21:12;;;;;;;5.65;3.97;;;;;;;8.13;74.35;100188.91;5031867;28;20086;-39
2024/02/22 01:23:37;;;;;;;6.63;4.10;;;;;;;8.06;75.21;100190.59;5031858;28;20037;-38
2024/02/22 01:26:02;;;;;;;8.45;4.15;;;;;;;8.00;75.08;100181.53;5031559;28;20081;-38
2024/02/22 01:28:28;;;;;;;6.47;4.20;;;;;;;8.18;74.25;100191.81;5030571;28;20497;-39
2024/02/22 01:30:54;;;;;;;6.50;4.20;;;;;;;8.28;74.70;100188.13;5031971;28;20148;-39
2024/02/22 01:33:19;;;;;;;6.93;4.30;;;;;;;8.19;74.12;100184.72;5031688;28;20032;-39
2024/02/22 01:35:44;;;;;;;5.93;4.10;;;;;;;8.36;73.83;100180.13;5031621;28;20029;-39
2024/02/22 01:38:10;;;;;;;7.07;4.20;;;;;;;8.67;72.88;100179.22;5032530;28;20554;-39
2024/02/22 01:40:35;;;;;;;5.47;3.90;;;;;;;8.65;72.98;100170.63;5051843;28;20029;-36
2024/02/22 01:43:00;;;;;;;6.10;4.25;;;;;;;8.78;71.92;100181.44;5051847;28;20025;-39
2024/02/22 01:45:26;;;;;;;5.60;4.10;;;;;;;8.72;71.96;100174.19;5035051;28;20049;-39
2024/02/22 01:47:52;;;;;;;5.25;3.80;;;;;;;8.82;71.63;100171.28;5031586;28;20420;-38
2024/02/22 01:50:17;;;;;;;4.82;3.75;;;;;;;8.52;72.50;100172.03;5031378;28;20021;-39
2024/02/22 01:52:43;;;;;;;4.00;3.30;;;;;;;8.35;72.60;100181.94;5031398;28;20021;-39
2024/02/22 01:55:10;;;;;;;5.00;3.72;;;;;;;8.22;72.50;100179.91;5031504;28;20045;-42
2024/02/22 01:57:36;;;;;;;5.07;3.58;;;;;;;8.23;72.57;100175.41;5031229;28;20029;-39
2024/02/22 02:00:04;;;;;;;4.97;3.58;;;;;;;8.29;71.83;100165.91;5031265;28;20437;-39
2024/02/22 02:02:29;;;;;;;4.63;3.58;;;;;;;8.30;72.22;100178.16;5031433;28;20036;-39
2024/02/22 02:04:55;;;;;;;5.35;3.88;;;;;;;8.14;72.95;100171.97;5031101;28;20025;-41
2024/02/22 02:07:21;;;;;;;4.97;3.20;;;;;;;8.13;73.73;100170.34;5031253;28;20060;-36
2024/02/22 02:09:46;;;;;;;5.15;3.75;;;;;;;8.17;73.33;100169.00;5031040;28;20056;-38
2024/02/22 02:12:11;;;;;;;4.85;3.50;;;;;;;7.89;74.50;100160.72;5031342;28;20033;-39
2024/02/22 02:14:37;;;;;;;5.53;3.22;;;;;;;7.54;75.39;100159.44;5031139;28;20064;-39
2024/02/22 02:17:02;;;;;;;4.10;3.17;;;;;;;7.54;75.67;100154.97;5031812;28;20044;-41
2024/02/22 02:19:29;;;;;;;4.85;3.15;;;;;;;7.63;75.27;100155.75;5031014;28;20486;-26
2024/02/22 02:22:10;;;;;;;3.70;2.90;;;;;;;7.66;75.57;100158.06;5033553;28;20104;-27
2024/02/22 02:24:52;;;;;;;4.05;2.92;;;;;;;7.87;74.56;100154.78;5036016;28;20041;-27
2024/02/22 02:27:17;;;;;;;4.65;3.03;;;;;;;7.69;74.60;100155.06;5042959;28;20083;-27
2024/02/22 02:29:44;;;;;;;4.55;2.67;;;;;;;7.47;75.94;100153.19;5040443;28;20477;-26
2024/02/22 02:32:09;;;;;;;4.20;3.03;;;;;;;7.48;75.21;100160.94;5031153;28;20382;-26
2024/02/22 02:34:34;;;;;;;3.83;2.63;;;;;;;7.28;75.93;100154.44;5030988;28;20032;-26
2024/02/22 02:37:00;;;;;;;4.05;2.70;;;;;;;7.53;74.91;100157.78;5031038;28;20511;-27
2024/02/22 02:39:25;;;;;;;3.50;2.70;;;;;;;7.48;74.87;100160.13;5032742;28;20021;-27
2024/02/22 02:41:51;;;;;;;4.22;2.70;;;;;;;7.21;74.89;100151.63;5035121;28;20517;-27
2024/02/22 02:44:16;;;;;;;5.35;3.00;;;;;;;7.06;74.79;100151.53;5041697;28;20017;-27
2024/02/22 02:46:42;;;;;;;3.00;2.22;;;;;;;6.88;75.31;100153.59;5055094;28;20104;-27
2024/02/22 02:49:07;;;;;;;3.38;2.50;;;;;;;7.08;74.18;100157.47;5055266;28;20036;-27
2024/02/22 02:51:32;;;;;;;4.15;2.92;;;;;;;7.07;73.18;100161.13;5054363;28;20204;-26
2024/02/22 02:53:58;;;;;;;3.35;2.50;;;;;;;7.47;71.67;100164.63;5054389;28;20025;-27
2024/02/22 02:56:23;;;;;;;3.40;2.50;;;;;;;7.48;71.13;100155.66;5054244;28;20071;-26
2024/02/22 02:58:49;;;;;;;3.40;2.58;;;;;;;7.68;70.01;100168.47;5054199;28;20029;-26
2024/02/22 03:01:14;;;;;;;4.15;2.75;;;;;;;7.55;71.05;100158.44;5054216;28;20017;-27
2024/02/22 03:03:39;;;;;;;3.63;2.88;;;;;;;7.23;71.51;100154.94;5054183;28;20025;-26
2024/02/22 03:06:05;;;;;;;3.50;2.47;;;;;;;7.66;70.49;100155.41;5054011;28;20508;-26
2024/02/22 03:08:30;;;;;;;3.13;2.60;;;;;;;7.71;69.80;100152.22;5054094;28;20013;-30
2024/02/22 03:10:55;;;;;;;3.03;2.25;;;;;;;7.65;69.90;100159.03;5054439;28;20017;-26
2024/02/22 03:13:21;;;;;;;3.42;2.53;;;;;;;7.64;70.04;100157.41;5053776;28;20017;-26
2024/02/22 03:15:48;;;;;;;3.30;2.55;;;;;;;7.70;69.75;100166.50;5053770;28;20047;-25
2024/02/22 03:18:14;;;;;;;4.05;3.17;;;;;;;7.35;71.66;100172.13;5053840;28;20025;-26
2024/02/22 03:20:39;;;;;;;5.57;3.38;;;;;;;7.44;72.69;100175.53;5053849;28;20024;-26
2024/02/22 03:23:07;;;;;;;4.70;3.40;;;;;;;7.35;73.16;100174.75;5054302;28;20064;-26
2024/02/22 03:25:32;;;;;;;5.32;3.22;;;;;;;7.27;73.55;100173.97;5053696;28;20057;-26
2024/02/22 03:27:58;;;;;;;5.75;3.55;;;;;;;7.47;72.96;100177.03;5053567;28;20021;-26
2024/02/22 03:30:25;;;;;;;4.57;3.38;;;;;;;7.42;72.34;100175.72;5054149;28;20028;-26
2024/02/22 03:32:51;;;;;;;5.38;3.65;;;;;;;7.10;74.89;100181.13;5053497;28;20024;-26
2024/02/22 03:35:17;;;;;;;5.43;3.55;;;;;;;6.91;75.36;100185.81;5053774;28;20029;-25
2024/02/22 03:37:43;;;;;;;5.30;3.53;;;;;;;6.93;75.79;100189.13;5054308;28;20028;-25
2024/02/22 03:40:09;;;;;;;5.32;3.47;;;;;;;6.88;75.53;100186.16;5054150;28;20029;-26
2024/02/22 03:42:34;;;;;;;7.18;3.80;;;;;;;6.69;76.36;100178.59;5046499;28;20052;-26
2024/02/22 03:45:00;;;;;;;7.57;4.03;;;;;;;6.79;75.26;100187.16;5033735;28;20446;-25
2024/02/22 03:47:25;;;;;;;8.55;3.90;;;;;;;6.56;76.83;100190.47;5033774;28;20040;-26
2024/02/22 03:49:50;;;;;;;7.75;4.60;;;;;;;6.55;76.87;100203.88;5035239;28;20458;-26
2024/02/22 03:52:17;;;;;;;7.38;4.55;;;;;;;6.53;77.42;100200.56;5052879;28;20029;-27
2024/02/22 03:54:42;;;;;;;13.68;5.25;;;;;;;6.53;77.39;100185.53;5053346;28;20053;-26
2024/02/22 03:57:08;;;;;;;9.85;5.32;;;;;;;6.82;76.26;100200.06;5053237;28;20032;-26
2024/02/22 03:59:33;;;;;;;13.35;4.80;;;;;;;6.59;77.04;100199.91;5053139;28;20063;-26
2024/02/22 04:01:58;;;;;;;8.95;5.30;;;;;;;6.50;77.72;100203.56;5053544;28;20071;-26
2024/02/22 04:04:24;;;;;;;8.32;5.00;;;;;;;6.41;77.18;100206.19;5052786;28;20029;-38
2024/02/22 04:06:49;;;;;;;9.25;4.95;;;;;;;6.28;78.20;100202.38;5052578;28;20025;-40
2024/02/22 04:09:15;;;;;;;7.28;4.80;;;;;;;6.50;77.26;100198.25;5053181;28;20110;-38
2024/02/22 04:11:41;;;;;;;11.68;5.10;;;;;;;6.29;78.15;100204.03;5046475;28;20040;-38
2024/02/22 04:14:06;;;;;;;7.07;4.55;;;;;;;6.16;79.16;100197.41;5032892;28;20396;-41
2024/02/22 04:16:31;;;;;;;8.05;4.68;;;;;;;6.35;78.17;100195.44;5038154;28;20028;-39
2024/02/22 04:18:57;;;;;;;6.47;4.35;;;;;;;6.47;77.39;100194.13;5042015;28;20025;-38
2024/02/22 04:21:22;;;;;;;6.55;4.30;;;;;;;6.37;77.82;100193.47;5041668;28;20022;-38
2024/02/22 04:23:47;;;;;;;6.22;4.20;;;;;;;6.42;77.20;100184.06;5043571;28;20114;-39
2024/02/22 04:26:13;;;;;;;7.20;4.15;;;;;;;6.25;78.32;100190.31;5041577;28;20509;-38
2024/02/22 04:28:38;;;;;;;6.90;4.30;;;;;;;6.34;78.46;100193.78;5032710;28;20378;-45
2024/02/22 04:31:04;;;;;;;8.30;4.78;;;;;;;6.23;78.75;100192.31;5032616;28;20105;-37
2024/02/22 04:33:31;;;;;;;8.85;4.35;;;;;;;6.30;78.42;100187.19;5032472;28;20432;-40
2024/02/22 04:35:56;;;;;;;11.48;6.07;;;;;;;6.24;78.52;100186.88;5032593;28;20489;-39
2024/02/22 04:38:22;;;;;;;15.32;8.18;;;;;;;6.30;78.01;100184.53;5032620;28;20021;-39
2024/02/22 04:40:48;;;;;;;15.02;8.15;;;;;;;6.15;78.56;100182.56;5032581;28;20481;-40
2024/02/22 04:43:13;;;;;;;8.60;5.20;;;;;;;5.94;80.22;100188.28;5032188;28;20048;-39
2024/02/22 04:45:39;;;;;;;10.00;5.57;;;;;;;6.26;78.42;100182.25;5031748;28;20040;-39
2024/02/22 04:48:06;;;;;;;12.30;6.45;;;;;;;6.03;79.20;100186.50;5032130;28;20100;-40
2024/02/22 04:50:32;;;;;;;7.88;4.78;;;;;;;6.03;79.03;100176.75;5051373;28;20405;-40
2024/02/22 04:52:59;;;;;;;7.93;4.97;;;;;;;6.16;79.09;100176.28;5052218;28;20028;-39
2024/02/22 04:55:25;;;;;;;16.42;8.38;;;;;;;6.05;78.89;100172.16;5052020;28;20021;-39
2024/02/22 04:57:50;;;;;;;30.80;15.55;;;;;;;6.00;79.73;100163.06;5050896;28;20032;-40
2024/02/22 05:00:16;;;;;;;28.63;14.38;;;;;;;5.92;79.83;100181.50;5052009;28;20071;-39
2024/02/22 05:02:43;;;;;;;23.55;12.75;;;;;;;5.87;80.09;100174.88;5052333;28;20020;-26
2024/02/22 05:05:08;;;;;;;12.40;7.00;;;;;;;6.06;79.65;100180.91;5052375;28;20497;-27
2024/02/22 05:07:34;;;;;;;7.78;5.40;;;;;;;6.13;78.99;100168.69;5051737;28;20049;-26
2024/02/22 05:10:00;;;;;;;8.82;5.25;;;;;;;6.05;79.55;100182.72;5052561;28;20083;-27
2024/02/22 05:12:26;;;;;;;8.02;4.40;;;;;;;5.93;80.41;100194.53;5052300;28;20017;-26
2024/02/22 05:14:51;;;;;;;7.05;4.30;;;;;;;5.68;80.90;100177.81;5052138;28;20444;-27
2024/02/22 05:17:17;;;;;;;6.38;4.25;;;;;;;5.98;79.90;100194.91;5048730;28;20032;-27
2024/02/22 05:19:42;;;;;;;7.72;4.57;;;;;;;6.07;79.81;100188.66;5052151;28;20029;-27
2024/02/22 05:22:08;;;;;;;7.72;4.05;;;;;;;6.07;79.18;100198.38;5050717;28;20481;-25
2024/02/22 05:24:34;;;;;;;9.68;4.43;;;;;;;6.13;79.46;100194.25;5052054;28;20581;-27
2024/02/22 05:26:59;;;;;;;6.18;4.30;;;;;;;6.23;79.39;100192.31;5052276;28;20032;-27
2024/02/22 05:29:25;;;;;;;6.47;4.20;;;;;;;6.44;78.66;100205.84;5051748;28;20013;-27
2024/02/22 05:31:55;;;;;;;5.50;4.13;;;;;;;6.94;76.63;100205.81;5051881;28;20029;-27
2024/02/22 05:34:20;;;;;;;7.90;4.97;;;;;;;7.47;74.54;100206.97;5051780;28;20032;-28
2024/02/22 05:36:46;;;;;;;8.95;5.00;;;;;;;7.08;76.35;100207.75;5052029;28;20033;-28
2024/02/22 05:39:11;;;;;;;7.25;4.70;;;;;;;7.34;75.31;100204.06;5042846;28;20095;-26
2024/02/22 05:41:37;;;;;;;10.70;5.70;;;;;;;7.35;74.98;100195.94;5036439;28;20029;-28
2024/02/22 05:44:03;;;;;;;9.95;6.57;;;;;;;7.58;75.29;100208.44;5052020;28;20021;-27
2024/02/22 05:46:28;;;;;;;12.05;6.90;;;;;;;8.72;92.11;100213.97;5051653;28;20549;-28
2024/02/22 05:48:54;;;;;;;10.45;6.55;;;;;;;9.47;71.08;100205.06;5051576;28;20025;-27
2024/02/22 05:51:19;;;;;;;10.07;6.05;;;;;;;9.09;68.30;100213.13;5050567;28;20071;-26
2024/02/22 05:53:45;;;;;;;9.38;6.03;;;;;;;9.08;69.27;100208.84;5051736;28;20552;-27
2024/02/22 05:56:10;;;;;;;9.98;5.95;;;;;;;10.02;67.41;100221.44;5051763;28;20396;-27
2024/02/22 05:58:35;;;;;;;9.32;5.60;;;;;;;10.62;64.37;100213.25;5047761;28;20152;-27
2024/02/22 06:01:01;;;;;;;6.93;4.80;;;;;;;11.17;61.20;100216.91;5043689;28;20405;-28
2024/02/22 06:03:26;;;;;;;8.98;4.95;;;;;;;11.73;59.63;100214.13;5043259;28;20021;-27
2024/02/22 06:05:51;;;;;;;6.63;4.55;;;;;;;12.23;58.38;100218.41;5042830;28;20025;-27
2024/02/22 06:08:18;;;;;;;6.78;4.30;;;;;;;12.62;56.18;100230.13;5043629;28;20384;-29
2024/02/22 06:10:43;;;;;;;6.30;3.80;;;;;;;13.06;54.37;100236.69;5040289;28;20037;-28
2024/02/22 06:13:08;;;;;;;8.40;3.88;;;;;;;13.49;53.20;100238.88;5041221;28;20032;-30
2024/02/22 06:15:34;;;;;;;9.10;4.35;;;;;;;13.43;53.17;100239.72;5046579;28;20025;-26
2024/02/22 06:17:59;;;;;;;5.97;4.10;;;;;;;13.46;52.23;100239.28;5048262;28;20039;-28
2024/02/22 06:20:24;;;;;;;6.65;3.92;;;;;;;13.51;52.28;100247.50;5046653;28;20535;-28
2024/02/22 06:22:50;;;;;;;5.35;3.88;;;;;;;13.80;50.75;100248.03;5052661;28;20017;-27
2024/02/22 06:25:16;;;;;;;6.97;4.20;;;;;;;14.38;50.20;100247.13;5046431;28;20448;-40
2024/02/22 06:27:45;;;;;;;5.82;4.28;;;;;;;14.79;48.67;100257.34;5046523;28;20033;-42
2024/02/22 06:30:11;;;;;;;7.07;4.60;;;;;;;15.21;54.49;100246.03;5041966;28;20048;-40
2024/02/22 06:32:37;;;;;;;9.05;4.57;;;;;;;15.60;46.04;100252.84;5044296;28;20112;-40
2024/02/22 06:35:03;;;;;;;7.32;4.30;;;;;;;15.87;45.92;100252.53;5054996;28;20060;-42
2024/02/22 06:37:28;;;;;;;7.20;4.80;;;;;;;16.28;44.40;100256.34;5054811;28;20029;-42
2024/02/22 06:39:54;;;;;;;8.60;5.47;;;;;;;16.59;43.52;100254.44;5050655;28;20086;-42
2024/02/22 06:42:19;;;;;;;5.45;4.30;;;;;;;16.84;42.65;100254.25;5053554;28;20459;-40
2024/02/22 06:44:45;;;;;;;5.65;3.90;;;;;;;16.99;42.36;100257.31;5054406;28;20104;-30
2024/02/22 06:47:11;;;;;;;7.45;4.50;;;;;;;17.47;41.17;100255.41;5054468;28;20032;-30
2024/02/22 06:49:36;;;;;;;6.35;4.43;;;;;;;17.54;40.53;100256.09;5054269;28;20448;-27
2024/02/22 06:52:02;;;;;;;8.30;5.20;;;;;;;17.81;40.12;100254.75;5054173;28;20029;-28
2024/02/22 06:54:28;;;;;;;9.27;6.55;;;;;;;17.77;39.79;100257.13;5042458;28;20084;-27
2024/02/22 06:56:53;;;;;;;9.93;6.88;;;;;;;17.91;39.60;100261.19;5034778;28;20029;-28
2024/02/22 06:59:20;;;;;;;7.55;5.57;;;;;;;17.89;39.44;100246.34;5038692;28;20024;-27
2024/02/22 07:01:46;;;;;;;6.70;4.60;;;;;;;18.33;39.11;100255.53;5044919;28;20508;-28
2024/02/22 07:04:12;;;;;;;10.43;5.20;;;;;;;18.85;37.75;100257.22;5046628;28;20021;-28
2024/02/22 07:06:38;;;;;;;10.68;7.57;;;;;;;18.88;37.44;100245.13;5050906;28;20740;-29
2024/02/22 07:09:04;;;;;;;12.05;8.52;;;;;;;18.78;37.60;100247.63;5053925;28;20025;-29
2024/02/22 07:11:30;;;;;;;6.60;4.70;;;;;;;18.83;36.71;100243.19;5053765;28;20021;-30
2024/02/22 07:13:56;;;;;;;6.88;4.57;;;;;;;19.07;37.29;100251.88;5053185;28;20086;-27
2024/02/22 07:16:23;;;;;;;10.68;5.93;;;;;;;18.79;38.17;100244.69;5045459;28;20474;-27
2024/02/22 07:18:48;;;;;;;12.05;5.70;;;;;;;18.29;39.43;100248.97;5033757;28;20037;-29
2024/02/22 07:21:14;;;;;;;11.02;5.72;;;;;;;18.53;39.17;100246.16;5034031;28;20504;-28
2024/02/22 07:23:39;;;;;;;6.22;4.38;;;;;;;18.85;38.12;100248.28;5033947;28;20044;-30
2024/02/22 07:26:09;;;;;;;4.88;3.70;;;;;;;19.10;36.72;100246.00;5032746;28;20053;-29
2024/02/22 07:28:36;;;;;;;5.53;4.10;;;;;;;19.34;36.79;100240.38;5033845;28;20103;-32
2024/02/22 07:31:02;;;;;;;6.35;4.38;;;;;;;19.64;36.75;100248.06;5033782;28;20021;-28
2024/02/22 07:33:29;;;;;;;9.10;4.50;;;;;;;19.90;36.55;100241.09;5034198;28;20091;-30
2024/02/22 07:35:55;;;;;;;6.43;4.43;;;;;;;20.04;36.29;100240.72;5033841;28;20367;-28
2024/02/22 07:38:20;;;;;;;6.18;4.50;;;;;;;20.29;36.09;100234.75;5033551;28;20033;-29
2024/02/22 07:40:45;;;;;;;9.57;4.50;;;;;;;20.22;35.52;100234.97;5033634;28;20568;-27
2024/02/22 07:43:11;;;;;;;5.30;4.10;;;;;;;20.05;35.48;100232.38;5032918;28;20025;-27
2024/02/22 07:45:37;;;;;;;5.13;4.10;;;;;;;19.80;35.69;100237.47;5040345;28;20557;-27
2024/02/22 07:48:08;;;;;;;6.10;4.25;;;;;;;20.09;35.46;100232.66;5033705;28;20101;-26
2024/02/22 07:50:34;;;;;;;5.90;4.20;;;;;;;20.29;34.68;100226.63;5033542;28;20395;-28
2024/02/22 07:52:59;;;;;;;6.55;4.70;;;;;;;20.40;35.11;100224.84;5033451;28;20021;-27
2024/02/22 07:55:25;;;;;;;6.63;4.38;;;;;;;20.61;34.42;100232.09;5033324;28;20520;-28
2024/02/22 07:57:51;;;;;;;13.98;10.85;;;;;;;20.97;34.03;100226.94;5033114;28;20450;-28
2024/02/22 08:00:17;;;;;;;9.95;7.75;;;;;;;21.17;33.58;100217.31;5033246;28;20028;-27
2024/02/22 08:02:43;;;;;;;7.18;6.00;;;;;;;21.34;33.45;100217.94;5032195;28;20029;-29
2024/02/22 08:05:10;;;;;;;5.97;4.47;;;;;;;20.89;33.17;100214.72;5032984;28;20484;-27
2024/02/22 08:07:36;;;;;;;8.98;6.07;;;;;;;21.24;32.79;100223.31;5032958;28;20028;-27
2024/02/22 08:10:02;;;;;;;6.43;5.15;;;;;;;21.32;32.27;100209.25;5033009;28;20083;-29
2024/02/22 08:12:28;;;;;;;5.72;4.60;;;;;;;21.12;32.96;100206.47;5032792;28;20025;-28
2024/02/22 08:14:54;;;;;;;5.10;3.70;;;;;;;21.16;32.49;100207.56;5033095;28;20029;-27
2024/02/22 08:17:19;;;;;;;4.93;3.53;;;;;;;21.01;32.24;100209.09;5033127;28;20017;-28
2024/02/22 08:19:45;;;;;;;5.18;3.90;;;;;;;20.50;33.04;100206.00;5032922;28;20509;-28
2024/02/22 08:22:11;;;;;;;5.68;3.88;;;;;;;21.16;32.38;100200.25;5032864;28;20108;-29
2024/02/22 08:24:36;;;;;;;4.78;3.75;;;;;;;21.75;31.67;100201.88;5032769;28;20049;-28
2024/02/22 08:27:01;;;;;;;4.72;3.80;;;;;;;21.29;32.39;100204.41;5032687;28;20094;-27
2024/02/22 08:29:27;;;;;;;6.40;4.00;;;;;;;22.00;30.96;100189.50;5032919;28;20080;-27
2024/02/22 08:31:52;;;;;;;5.15;3.50;;;;;;;22.28;30.67;100196.31;5032047;28;20090;-28
2024/02/22 08:34:18;;;;;;;4.40;3.42;;;;;;;21.51;31.62;100195.31;5052607;28;20029;-28
2024/02/22 08:36:43;;;;;;;4.72;3.85;;;;;;;21.93;31.07;100194.34;5051646;28;20572;-28
2024/02/22 08:39:08;;;;;;;5.95;4.10;;;;;;;21.83;31.40;100185.09;5052589;28;20028;-29
2024/02/22 08:41:34;;;;;;;7.97;4.50;;;;;;;21.22;31.61;100191.09;5052327;28;20589;-28
2024/02/22 08:43:59;;;;;;;6.38;4.82;;;;;;;21.10;32.43;100193.19;5052448;28;20451;-28
2024/02/22 08:46:28;;;;;;;5.68;4.45;;;;;;;21.54;31.38;100183.97;5052123;28;20060;-28
2024/02/22 08:48:53;;;;;;;6.47;4.32;;;;;;;21.15;32.73;100190.53;5052417;28;20568;-29
2024/02/22 08:51:19;;;;;;;6.55;4.68;;;;;;;22.05;31.20;100192.22;5052604;28;20100;-29
2024/02/22 08:53:45;;;;;;;8.48;5.30;;;;;;;22.51;30.70;100181.41;5052376;28;20440;-30
2024/02/22 08:56:11;;;;;;;4.47;3.95;;;;;;;22.45;30.60;100186.03;5052382;28;20025;-29
2024/02/22 08:58:42;;;;;;;6.28;4.25;;;;;;;21.31;31.80;100174.38;5052113;28;20027;-26
2024/02/22 09:01:07;;;;;;;8.07;4.57;;;;;;;21.88;30.92;100180.81;5052314;28;20106;-28
2024/02/22 09:03:33;;;;;;;8.35;4.45;;;;;;;22.35;30.03;100183.31;5051852;28;20020;-30
2024/02/22 09:05:58;;;;;;;6.00;4.57;;;;;;;22.59;30.15;100171.91;5051947;28;20377;-27
2024/02/22 09:08:25;;;;;;;7.72;4.53;;;;;;;22.91;29.83;100178.91;5052025;28;20021;-27
2024/02/22 09:10:51;;;;;;;8.43;4.85;;;;;;;22.35;30.69;100171.66;5051596;28;20043;-28
2024/02/22 09:13:17;;;;;;;6.65;4.28;;;;;;;22.87;29.21;100175.94;5051925;28;20032;-38
2024/02/22 09:15:49;;;;;;;6.22;4.40;;;;;;;23.08;29.21;100176.72;5051903;28;20028;-39
2024/02/22 09:18:15;;;;;;;8.02;4.97;;;;;;;22.58;29.69;100170.28;5051360;28;20021;-39
2024/02/22 09:20:40;;;;;;;6.18;4.65;;;;;;;22.56;30.50;100164.31;5051608;28;20029;-42
2024/02/22 09:23:05;;;;;;;10.05;4.95;;;;;;;22.08;30.19;100164.56;5051511;28;20737;-37
2024/02/22 09:25:31;;;;;;;6.15;5.10;;;;;;;22.30;30.64;100161.63;5051559;28;20054;-39
2024/02/22 09:27:57;;;;;;;5.88;4.38;;;;;;;21.76;30.67;100160.19;5051503;28;20519;-41
2024/02/22 09:30:22;;;;;;;6.25;4.80;;;;;;;21.11;31.81;100159.63;5051431;28;20408;-39
2024/02/22 09:32:47;;;;;;;7.22;4.80;;;;;;;20.68;32.93;100159.69;5051256;28;20107;-42
2024/02/22 09:35:13;;;;;;;7.68;4.90;;;;;;;20.46;32.41;100154.34;5051541;28;20363;-39
2024/02/22 09:37:38;;;;;;;6.43;4.97;;;;;;;20.58;31.84;100143.38;5051265;28;20025;-42
2024/02/22 09:40:04;;;;;;;9.20;4.93;;;;;;;20.81;32.33;100158.41;5051223;28;20059;-43
2024/02/22 09:42:30;;;;;;;7.90;5.20;;;;;;;20.63;32.47;100148.03;5051422;28;20104;-39
2024/02/22 09:44:56;;;;;;;7.10;5.43;;;;;;;20.01;33.19;100142.09;5041523;28;20104;-40
2024/02/22 09:47:22;;;;;;;8.98;5.70;;;;;;;20.17;32.94;100129.53;5031178;28;20612;-41
2024/02/22 09:49:47;;;;;;;10.35;5.68;;;;;;;19.35;34.95;100136.78;5030395;28;20101;-42
2024/02/22 09:52:14;;;;;;;7.95;5.60;;;;;;;18.42;36.13;100129.28;5031366;28;20017;-41
2024/02/22 09:54:44;;;;;;;15.23;6.05;;;;;;;18.80;36.22;100122.34;5031405;28;20490;-40
2024/02/22 09:57:10;;;;;;;8.27;5.57;;;;;;;19.41;35.55;100121.47;5031475;28;20037;-42
2024/02/22 09:59:35;;;;;;;16.17;6.38;;;;;;;18.18;37.74;100120.56;5031262;28;20026;-41
2024/02/22 10:02:05;;;;;;;8.38;6.05;;;;;;;18.62;36.34;100118.03;5030797;28;20025;-43
2024/02/22 10:04:31;;;;;;;9.15;6.60;;;;;;;18.34;37.45;100122.44;5030979;28;20033;-41
2024/02/22 10:07:03;;;;;;;9.10;6.40;;;;;;;18.89;37.15;100120.84;5031560;28;20048;-40
2024/02/22 10:09:29;;;;;;;9.70;5.93;;;;;;;19.36;36.42;100111.41;5030899;28;20034;-42
2024/02/22 10:11:54;;;;;;;12.25;6.22;;;;;;;20.29;35.27;100108.53;5031184;28;20037;-43
2024/02/22 10:14:20;;;;;;;8.70;6.40;;;;;;;20.23;34.28;100106.88;5031043;28;20033;-41
2024/02/22 10:16:45;;;;;;;9.95;6.78;;;;;;;19.73;35.54;100097.28;5030896;28;20108;-40
2024/02/22 10:19:12;;;;;;;8.13;6.18;;;;;;;19.31;35.71;100087.91;5030766;28;20452;-41
2024/02/22 10:21:38;;;;;;;8.93;6.78;;;;;;;19.11;36.48;100091.19;5030873;28;20029;-40
2024/02/22 10:24:04;;;;;;;9.70;6.70;;;;;;;18.42;37.83;100086.19;5030614;28;20033;-41
2024/02/22 10:26:29;;;;;;;10.32;7.22;;;;;;;18.56;37.50;100065.94;5031094;28;20087;-40
2024/02/22 10:28:55;;;;;;;12.75;6.22;;;;;;;18.35;38.74;100080.16;5030967;28;20060;-41
2024/02/22 10:31:22;;;;;;;12.70;6.85;;;;;;;19.54;36.60;100062.50;5030715;28;20030;-41
2024/02/22 10:33:48;;;;;;;9.35;6.32;;;;;;;18.55;37.84;100050.00;5030942;28;20026;-42
2024/02/22 10:36:16;;;;;;;8.80;6.75;;;;;;;18.52;38.28;100055.88;5030788;28;20028;-41
2024/02/22 10:38:41;;;;;;;9.13;6.32;;;;;;;18.98;37.23;100058.38;5030852;28;20031;-41
2024/02/22 10:41:10;;;;;;;9.60;7.07;;;;;;;18.75;37.04;100047.59;5031026;28;20029;-45
2024/02/22 10:43:39;;;;;;;10.52;6.88;;;;;;;19.09;37.43;100042.06;5030755;28;20209;-40
2024/02/22 10:46:08;;;;;;;9.57;6.80;;;;;;;18.02;38.87;100044.09;5031215;28;20033;-43
2024/02/22 10:48:35;;;;;;;;;;;;;;;17.98;39.58;100041.06;5031264;28;20028;-40
2024/02/22 10:51:04;;;;;;;9.82;6.72;;;;;;;17.92;39.47;100042.06;5030770;28;20328;-40
2024/02/22 10:53:35;;;;;;;11.43;6.88;;;;;;;17.62;39.37;100034.25;5030879;28;20040;-40
2024/02/22 10:56:01;;;;;;;8.60;6.10;;;;;;;17.11;40.47;100017.19;5030545;28;20120;-41
2024/02/22 10:58:28;;;;;;;9.23;6.10;;;;;;;16.93;39.51;100019.00;5030647;28;20109;-41
2024/02/22 11:00:55;;;;;;;9.27;6.18;;;;;;;17.24;39.89;100011.53;5033191;28;20029;-41
2024/02/22 11:03:22;;;;;;;8.55;6.07;;;;;;;17.18;40.02;100012.50;5049939;28;20393;-41
2024/02/22 11:05:48;;;;;;;9.23;5.88;;;;;;;17.77;38.97;100007.59;5054380;28;20032;-41
2024/02/22 11:08:28;;;;;;;7.40;5.88;;;;;;;18.35;39.23;100002.03;5054291;28;20487;-41
2024/02/22 11:11:07;;;;;;;8.30;6.43;;;;;;;18.93;37.47;99989.84;5054289;28;20056;-41
2024/02/22 11:13:33;;;;;;;11.75;7.15;;;;;;;18.91;37.03;99991.97;5054194;28;20476;-40
2024/02/22 11:15:58;;;;;;;8.95;6.50;;;;;;;19.01;35.74;99985.88;5054208;28;20043;-42
2024/02/22 11:18:25;;;;;;;8.32;6.78;;;;;;;18.81;36.66;99977.56;5053888;28;20025;-44
2024/02/22 11:20:50;;;;;;;7.75;5.93;;;;;;;17.94;37.20;99971.81;5052748;28;20469;-40
2024/02/22 11:23:18;;;;;;;9.50;5.88;;;;;;;18.39;37.35;99970.84;5053952;28;20086;-40